Monroe, UT (84754)

7:05 PM MDT on August 27, 2015 (GMT -0600)
Putter Butt Farms | | Change Station
CLOSE
Current Station
Personal Weather Station
Location: Monroe, UT
Elevation: 5322 ft
Nearby Weather Stations

Elev 5322 ft 38.65 °N, 112.14 °W | Updated 33 seconds ago

Partly Cloudy
Partly Cloudy
81.2 °F
Feels Like 80 °F
N
0.0
Wind Variable Wind from NE
Gusts 0.0 mph

Today
High -- | Low -- °F
--% Chance of Precip.
Yesterday
High -- | Low -- °F
Precip. -- in
6:53 AM 8:06 PM
Waxing Gibbous, 96% visible
Pressure 29.99 in
Visibility 10.0 miles
Clouds Clear
Heat Index 80 °F
Dew Point 49 °F
Humidity 33%
Rainfall 0.01 in
Snow Depth Not available.
UV 0.0 out of 12
Pollen 7.70 out of 12
Air Quality Not available.
Flu Activity Not available.
METAR KMLF 280052Z AUTO 00000KT 10SM CLR 29/06 A3018 RMK AO2 SLP155 T02940061
Pressure 29.99 in
Visibility 10.0 miles
Clouds Clear
Heat Index 80 °F
Dew Point 49 °F
Humidity 33%
Rainfall 0.01 in
Snow Depth Not available.
UV 0.0 out of 12
Pollen 7.70 out of 12
Air Quality Not available.
Flu Activity Not available.
METAR KMLF 280052Z AUTO 00000KT 10SM CLR 29/06 A3018 RMK AO2 SLP155 T02940061
Nowcast | as of 5:49 PM MDT on August 27, 2015

Scattered showers and thunderstorms will continue to Blossom into early evening and move southeast over portions of southern and central Utah. The strongest storms at 545 PM were north of Veyo and Snow Canyon State Park...with another cell approaching Lake Powell at Ticaboo. The strongest activity may produce moderate to heavy rain...small hail...strong gusty winds and dangerous lightning.

×

10-Day Weather Forecast

×

Almanac

Astronomy

Aug. 27, 2015 Rise Set
Actual Time
Civil Twilight
Nautical Twilight
Astronomical Twilight
Moon
Length of Visible Light
Length of Day
Tomorrow will be .
, % of the Moon is Illuminated

Today's Extremes

State Highs State Lows

Community

WunderPhotos

Upload Photos

1,850,288 photos uploaded!

WunderBlogs® & News

Nearby

Air Quality

  Air Quality AQ Index Pollutant
Not available.

Snow Depth

Station Depth Elevation

Earthquake Activity

City Distance Mag. Time & Date
Minimum magnitude displayed is 2.5.

Coastal Water Temperatures

Place Temperature

Stations

Nearby Weather Stations

Station Location Temp. Windchill Dew Point Humidity Wind Precip. Elev Updated Type